sensor_id;sensor_type;location;lat;lon;timestamp;pressure;altitude;pressure_sealevel;temperature;humidity
70546;BME280;58098;51.680;5.134;2024-02-26T00:01:02;99842.97;;;5.73;100.00
70546;BME280;58098;51.680;5.134;2024-02-26T00:03:27;99844.72;;;5.72;100.00
70546;BME280;58098;51.680;5.134;2024-02-26T00:05:53;99848.75;;;5.76;100.00
70546;BME280;58098;51.680;5.134;2024-02-26T00:08:18;99842.16;;;5.72;100.00
70546;BME280;58098;51.680;5.134;2024-02-26T00:10:43;99846.88;;;5.78;100.00
70546;BME280;58098;51.680;5.134;2024-02-26T00:13:09;99843.59;;;5.76;100.00
70546;BME280;58098;51.680;5.134;2024-02-26T00:15:34;99840.44;;;5.84;100.00
70546;BME280;58098;51.680;5.134;2024-02-26T00:18:00;99850.69;;;5.85;100.00
70546;BME280;58098;51.680;5.134;2024-02-26T00:20:26;99854.09;;;5.86;100.00
70546;BME280;58098;51.680;5.134;2024-02-26T00:22:51;99838.75;;;5.83;100.00
70546;BME280;58098;51.680;5.134;2024-02-26T00:25:17;99851.25;;;5.89;100.00
70546;BME280;58098;51.680;5.134;2024-02-26T00:27:42;99848.09;;;5.85;100.00
70546;BME280;58098;51.680;5.134;2024-02-26T00:30:09;99850.69;;;5.85;100.00
70546;BME280;58098;51.680;5.134;2024-02-26T00:32:35;99847.34;;;5.83;100.00
70546;BME280;58098;51.680;5.134;2024-02-26T00:35:00;99844.16;;;5.80;100.00
70546;BME280;58098;51.680;5.134;2024-02-26T00:37:26;99844.88;;;5.82;100.00
70546;BME280;58098;51.680;5.134;2024-02-26T00:39:51;99858.44;;;5.85;100.00
70546;BME280;58098;51.680;5.134;2024-02-26T00:42:18;99844.78;;;5.83;100.00
70546;BME280;58098;51.680;5.134;2024-02-26T00:44:43;99845.91;;;5.79;100.00
70546;BME280;58098;51.680;5.134;2024-02-26T00:47:09;99852.75;;;5.80;100.00
70546;BME280;58098;51.680;5.134;2024-02-26T00:49:34;99836.03;;;5.73;100.00
70546;BME280;58098;51.680;5.134;2024-02-26T00:51:59;99849.56;;;5.77;100.00
70546;BME280;58098;51.680;5.134;2024-02-26T00:54:24;99849.34;;;5.80;100.00
70546;BME280;58098;51.680;5.134;2024-02-26T00:56:50;99851.22;;;5.78;100.00
70546;BME280;58098;51.680;5.134;2024-02-26T00:59:15;99857.09;;;5.80;100.00
70546;BME280;58098;51.680;5.134;2024-02-26T01:01:41;99859.13;;;5.76;100.00
70546;BME280;58098;51.680;5.134;2024-02-26T01:04:06;99862.63;;;5.75;100.00
70546;BME280;58098;51.680;5.134;2024-02-26T01:06:31;99858.63;;;5.71;100.00
70546;BME280;58098;51.680;5.134;2024-02-26T01:08:56;99873.34;;;5.82;100.00
70546;BME280;58098;51.680;5.134;2024-02-26T01:11:22;99861.81;;;5.75;100.00
70546;BME280;58098;51.680;5.134;2024-02-26T01:13:47;99859.69;;;5.69;100.00
70546;BME280;58098;51.680;5.134;2024-02-26T01:16:12;99864.63;;;5.72;100.00
70546;BME280;58098;51.680;5.134;2024-02-26T01:18:38;99858.72;;;5.70;100.00
70546;BME280;58098;51.680;5.134;2024-02-26T01:21:03;99879.91;;;5.75;100.00
70546;BME280;58098;51.680;5.134;2024-02-26T01:23:32;99874.38;;;5.79;100.00
70546;BME280;58098;51.680;5.134;2024-02-26T01:25:57;99866.16;;;5.74;100.00
70546;BME280;58098;51.680;5.134;2024-02-26T01:28:22;99857.09;;;5.69;100.00
70546;BME280;58098;51.680;5.134;2024-02-26T01:30:48;99867.81;;;5.75;100.00
70546;BME280;58098;51.680;5.134;2024-02-26T01:33:13;99857.47;;;5.75;100.00
70546;BME280;58098;51.680;5.134;2024-02-26T01:35:38;99848.97;;;5.73;100.00
70546;BME280;58098;51.680;5.134;2024-02-26T01:38:04;99856.25;;;5.68;100.00
70546;BME280;58098;51.680;5.134;2024-02-26T01:40:29;99867.22;;;5.72;100.00
70546;BME280;58098;51.680;5.134;2024-02-26T01:42:55;99853.69;;;5.68;100.00
70546;BME280;58098;51.680;5.134;2024-02-26T01:45:20;99863.56;;;5.74;100.00
70546;BME280;58098;51.680;5.134;2024-02-26T01:47:49;99865.94;;;5.77;100.00
70546;BME280;58098;51.680;5.134;2024-02-26T01:50:14;99853.69;;;5.68;100.00
70546;BME280;58098;51.680;5.134;2024-02-26T01:52:40;99863.91;;;5.70;100.00
70546;BME280;58098;51.680;5.134;2024-02-26T01:55:06;99870.13;;;5.67;100.00
70546;BME280;58098;51.680;5.134;2024-02-26T01:57:32;99865.44;;;5.61;100.00
70546;BME280;58098;51.680;5.134;2024-02-26T01:59:58;99869.56;;;5.64;100.00
70546;BME280;58098;51.680;5.134;2024-02-26T02:02:23;99861.88;;;5.62;100.00
70546;BME280;58098;51.680;5.134;2024-02-26T02:04:49;99872.69;;;5.56;100.00
70546;BME280;58098;51.680;5.134;2024-02-26T02:07:14;99866.00;;;5.54;100.00
70546;BME280;58098;51.680;5.134;2024-02-26T02:09:39;99875.16;;;5.58;100.00
70546;BME280;58098;51.680;5.134;2024-02-26T02:12:05;99873.75;;;5.54;100.00
70546;BME280;58098;51.680;5.134;2024-02-26T02:14:31;99871.94;;;5.43;100.00
70546;BME280;58098;51.680;5.134;2024-02-26T02:16:56;99873.38;;;5.47;100.00
70546;BME280;58098;51.680;5.134;2024-02-26T02:19:22;99886.34;;;5.58;100.00
70546;BME280;58098;51.680;5.134;2024-02-26T02:21:47;99876.69;;;5.49;100.00
70546;BME280;58098;51.680;5.134;2024-02-26T02:24:12;99856.50;;;5.30;100.00
70546;BME280;58098;51.680;5.134;2024-02-26T02:26:38;99869.69;;;5.39;100.00
70546;BME280;58098;51.680;5.134;2024-02-26T02:29:04;99875.91;;;5.36;100.00
70546;BME280;58098;51.680;5.134;2024-02-26T02:31:29;99882.75;;;5.37;100.00
70546;BME280;58098;51.680;5.134;2024-02-26T02:33:55;99878.72;;;5.33;100.00
70546;BME280;58098;51.680;5.134;2024-02-26T02:36:21;99882.13;;;5.33;100.00
70546;BME280;58098;51.680;5.134;2024-02-26T02:38:50;99885.78;;;5.31;100.00
70546;BME280;58098;51.680;5.134;2024-02-26T02:41:16;99889.31;;;5.30;100.00
70546;BME280;58098;51.680;5.134;2024-02-26T02:43:42;99896.94;;;5.31;100.00
70546;BME280;58098;51.680;5.134;2024-02-26T02:46:07;99914.34;;;5.29;100.00
70546;BME280;58098;51.680;5.134;2024-02-26T02:48:32;99897.72;;;5.21;100.00
70546;BME280;58098;51.680;5.134;2024-02-26T02:50:58;99912.81;;;5.27;100.00
70546;BME280;58098;51.680;5.134;2024-02-26T02:53:23;99921.25;;;5.29;100.00
70546;BME280;58098;51.680;5.134;2024-02-26T02:55:48;99903.13;;;5.18;100.00
70546;BME280;58098;51.680;5.134;2024-02-26T02:58:14;99904.53;;;5.22;100.00
70546;BME280;58098;51.680;5.134;2024-02-26T03:00:39;99899.38;;;5.22;100.00
70546;BME280;58098;51.680;5.134;2024-02-26T03:03:04;99900.78;;;5.26;100.00
70546;BME280;58098;51.680;5.134;2024-02-26T03:05:29;99902.66;;;5.24;100.00
70546;BME280;58098;51.680;5.134;2024-02-26T03:07:55;99889.16;;;5.20;100.00
70546;BME280;58098;51.680;5.134;2024-02-26T03:10:20;99884.31;;;5.16;100.00
70546;BME280;58098;51.680;5.134;2024-02-26T03:12:45;99889.50;;;5.16;100.00
70546;BME280;58098;51.680;5.134;2024-02-26T03:15:11;99899.66;;;5.30;100.00
70546;BME280;58098;51.680;5.134;2024-02-26T03:17:36;99903.50;;;5.24;100.00
70546;BME280;58098;51.680;5.134;2024-02-26T03:20:02;99903.50;;;5.24;100.00
70546;BME280;58098;51.680;5.134;2024-02-26T03:22:30;99896.63;;;5.12;100.00
70546;BME280;58098;51.680;5.134;2024-02-26T03:24:55;99907.34;;;5.19;100.00
70546;BME280;58098;51.680;5.134;2024-02-26T03:27:21;99900.53;;;5.18;100.00
70546;BME280;58098;51.680;5.134;2024-02-26T03:29:46;99906.41;;;5.20;100.00
70546;BME280;58098;51.680;5.134;2024-02-26T03:32:13;99895.59;;;5.15;100.00
70546;BME280;58098;51.680;5.134;2024-02-26T03:34:38;99898.53;;;5.21;100.00
70546;BME280;58098;51.680;5.134;2024-02-26T03:37:05;99903.94;;;5.18;100.00
70546;BME280;58098;51.680;5.134;2024-02-26T03:39:31;99918.19;;;5.24;100.00
70546;BME280;58098;51.680;5.134;2024-02-26T03:41:57;99910.88;;;5.18;100.00
70546;BME280;58098;51.680;5.134;2024-02-26T03:44:22;99906.63;;;5.17;100.00
70546;BME280;58098;51.680;5.134;2024-02-26T03:46:47;99905.22;;;5.13;100.00
70546;BME280;58098;51.680;5.134;2024-02-26T03:49:12;99903.53;;;5.12;100.00
70546;BME280;58098;51.680;5.134;2024-02-26T03:51:38;99905.22;;;5.13;100.00
70546;BME280;58098;51.680;5.134;2024-02-26T03:54:03;99896.84;;;5.09;100.00
70546;BME280;58098;51.680;5.134;2024-02-26T03:56:29;99902.22;;;5.06;100.00
70546;BME280;58098;51.680;5.134;2024-02-26T03:58:55;99895.69;;;5.13;100.00
70546;BME280;58098;51.680;5.134;2024-02-26T04:01:20;99901.91;;;5.11;100.00
70546;BME280;58098;51.680;5.134;2024-02-26T04:03:45;99908.22;;;5.07;100.00
70546;BME280;58098;51.680;5.134;2024-02-26T04:06:11;99898.59;;;5.09;100.00
70546;BME280;58098;51.680;5.134;2024-02-26T04:08:39;99901.75;;;5.01;100.00
70546;BME280;58098;51.680;5.134;2024-02-26T04:11:04;99906.91;;;5.01;100.00
70546;BME280;58098;51.680;5.134;2024-02-26T04:13:33;99908.34;;;5.05;100.00
70546;BME280;58098;51.680;5.134;2024-02-26T04:15:58;99898.53;;;4.98;100.00
70546;BME280;58098;51.680;5.134;2024-02-26T04:18:23;99898.34;;;5.01;100.00
70546;BME280;58098;51.680;5.134;2024-02-26T04:20:49;99895.47;;;4.93;100.00
70546;BME280;58098;51.680;5.134;2024-02-26T04:23:16;99900.81;;;5.02;100.00
70546;BME280;58098;51.680;5.134;2024-02-26T04:25:41;99889.38;;;4.94;100.00
70546;BME280;58098;51.680;5.134;2024-02-26T04:28:07;99906.09;;;5.01;100.00
70546;BME280;58098;51.680;5.134;2024-02-26T04:30:32;99915.25;;;5.05;100.00
70546;BME280;58098;51.680;5.134;2024-02-26T04:32:57;99891.94;;;4.94;100.00
70546;BME280;58098;51.680;5.134;2024-02-26T04:35:23;99890.81;;;4.85;100.00
70546;BME280;58098;51.680;5.134;2024-02-26T04:37:48;99917.44;;;5.11;100.00
70546;BME280;58098;51.680;5.134;2024-02-26T04:40:13;99906.28;;;4.98;100.00
70546;BME280;58098;51.680;5.134;2024-02-26T04:42:39;99922.81;;;5.08;100.00
70546;BME280;58098;51.680;5.134;2024-02-26T04:45:05;99934.06;;;5.07;100.00
70546;BME280;58098;51.680;5.134;2024-02-26T04:47:31;99934.06;;;5.07;100.00
70546;BME280;58098;51.680;5.134;2024-02-26T04:49:57;99930.78;;;5.05;100.00
70546;BME280;58098;51.680;5.134;2024-02-26T04:52:22;99922.00;;;4.95;100.00
70546;BME280;58098;51.680;5.134;2024-02-26T04:54:47;99934.28;;;5.04;100.00
70546;BME280;58098;51.680;5.134;2024-02-26T04:57:13;99922.81;;;5.08;100.00
70546;BME280;58098;51.680;5.134;2024-02-26T04:59:38;99941.81;;;5.07;100.00
70546;BME280;58098;51.680;5.134;2024-02-26T05:02:03;99942.34;;;5.12;100.00
70546;BME280;58098;51.680;5.134;2024-02-26T05:04:29;99933.16;;;5.08;100.00
70546;BME280;58098;51.680;5.134;2024-02-26T05:06:54;99941.44;;;5.00;100.00
70546;BME280;58098;51.680;5.134;2024-02-26T05:09:20;99934.03;;;4.96;100.00
70546;BME280;58098;51.680;5.134;2024-02-26T05:11:45;99950.28;;;5.09;100.00
70546;BME280;58098;51.680;5.134;2024-02-26T05:14:11;99935.75;;;5.08;100.00
70546;BME280;58098;51.680;5.134;2024-02-26T05:16:36;99947.00;;;5.07;100.00
70546;BME280;58098;51.680;5.134;2024-02-26T05:19:01;99950.53;;;5.06;100.00
70546;BME280;58098;51.680;5.134;2024-02-26T05:21:27;99957.53;;;5.04;100.00
70546;BME280;58098;51.680;5.134;2024-02-26T05:23:53;99950.09;;;5.12;100.00
70546;BME280;58098;51.680;5.134;2024-02-26T05:26:22;99941.66;;;4.97;100.00
70546;BME280;58098;51.680;5.134;2024-02-26T05:28:47;99955.91;;;5.03;100.00
70546;BME280;58098;51.680;5.134;2024-02-26T05:31:13;99958.06;;;5.09;100.00
70546;BME280;58098;51.680;5.134;2024-02-26T05:33:39;99969.94;;;5.11;100.00
70546;BME280;58098;51.680;5.134;2024-02-26T05:36:04;99950.63;;;5.04;100.00
70546;BME280;58098;51.680;5.134;2024-02-26T05:38:30;99969.56;;;5.05;100.00
70546;BME280;58098;51.680;5.134;2024-02-26T05:40:57;99967.41;;;4.99;100.00
70546;BME280;58098;51.680;5.134;2024-02-26T05:43:23;99985.06;;;5.05;100.00
70546;BME280;58098;51.680;5.134;2024-02-26T05:45:48;99986.31;;;4.99;100.00
70546;BME280;58098;51.680;5.134;2024-02-26T05:48:14;99991.38;;;5.01;100.00
70546;BME280;58098;51.680;5.134;2024-02-26T05:50:39;99984.47;;;5.01;100.00
70546;BME280;58098;51.680;5.134;2024-02-26T05:53:05;99981.06;;;5.01;100.00
70546;BME280;58098;51.680;5.134;2024-02-26T05:55:30;99994.81;;;5.01;100.00
70546;BME280;58098;51.680;5.134;2024-02-26T05:57:55;99989.94;;;4.97;100.00
70546;BME280;58098;51.680;5.134;2024-02-26T06:00:21;99989.22;;;4.95;100.00
70546;BME280;58098;51.680;5.134;2024-02-26T06:02:46;99995.53;;;4.91;100.00
70546;BME280;58098;51.680;5.134;2024-02-26T06:05:11;100009.19;;;4.93;100.00
70546;BME280;58098;51.680;5.134;2024-02-26T06:07:37;100008.47;;;4.91;100.00
70546;BME280;58098;51.680;5.134;2024-02-26T06:10:02;99995.63;;;4.89;100.00
70546;BME280;58098;51.680;5.134;2024-02-26T06:12:30;100005.97;;;4.89;100.00
70546;BME280;58098;51.680;5.134;2024-02-26T06:14:56;99996.19;;;4.82;100.00
70546;BME280;58098;51.680;5.134;2024-02-26T06:17:21;100015.91;;;4.95;100.00
70546;BME280;58098;51.680;5.134;2024-02-26T06:19:47;100004.13;;;4.79;100.00
70546;BME280;58098;51.680;5.134;2024-02-26T06:22:12;100018.41;;;4.84;100.00
70546;BME280;58098;51.680;5.134;2024-02-26T06:24:37;100021.78;;;4.85;100.00
70546;BME280;58098;51.680;5.134;2024-02-26T06:27:03;100032.44;;;4.93;100.00
70546;BME280;58098;51.680;5.134;2024-02-26T06:29:28;100028.63;;;4.86;100.00
70546;BME280;58098;51.680;5.134;2024-02-26T06:31:54;100029.34;;;4.88;100.00
70546;BME280;58098;51.680;5.134;2024-02-26T06:34:19;100034.72;;;4.85;100.00
70546;BME280;58098;51.680;5.134;2024-02-26T06:36:45;100037.53;;;4.82;100.00
70546;BME280;58098;51.680;5.134;2024-02-26T06:39:10;100039.38;;;4.80;100.00
70546;BME280;58098;51.680;5.134;2024-02-26T06:41:37;100052.41;;;4.91;100.00
70546;BME280;58098;51.680;5.134;2024-02-26T06:44:04;100043.69;;;4.92;100.00
70546;BME280;58098;51.680;5.134;2024-02-26T06:46:30;100049.00;;;4.90;100.00
70546;BME280;58098;51.680;5.134;2024-02-26T06:48:55;100056.75;;;4.90;100.00
70546;BME280;58098;51.680;5.134;2024-02-26T06:51:21;100059.31;;;4.90;100.00
70546;BME280;58098;51.680;5.134;2024-02-26T06:53:46;100060.88;;;4.93;100.00
70546;BME280;58098;51.680;5.134;2024-02-26T06:56:12;100060.69;;;4.96;100.00
70546;BME280;58098;51.680;5.134;2024-02-26T06:58:37;100053.13;;;4.93;100.00
70546;BME280;58098;51.680;5.134;2024-02-26T07:01:02;100053.56;;;4.87;100.00
70546;BME280;58098;51.680;5.134;2024-02-26T07:03:28;100061.00;;;4.91;100.00
70546;BME280;58098;51.680;5.134;2024-02-26T07:05:54;100068.22;;;4.99;100.00
70546;BME280;58098;51.680;5.134;2024-02-26T07:08:19;100069.97;;;4.98;100.00
70546;BME280;58098;51.680;5.134;2024-02-26T07:10:46;100073.81;;;4.93;100.00
70546;BME280;58098;51.680;5.134;2024-02-26T07:13:11;100075.97;;;4.99;100.00
70546;BME280;58098;51.680;5.134;2024-02-26T07:15:36;100076.91;;;4.85;100.00
70546;BME280;58098;51.680;5.134;2024-02-26T07:18:01;100089.31;;;4.93;100.00
70546;BME280;58098;51.680;5.134;2024-02-26T07:20:30;100102.94;;;4.95;100.00
70546;BME280;58098;51.680;5.134;2024-02-26T07:22:56;100108.13;;;4.95;100.00
70546;BME280;58098;51.680;5.134;2024-02-26T07:25:21;100103.16;;;5.04;100.00
70546;BME280;58098;51.680;5.134;2024-02-26T07:27:47;100115.16;;;4.93;100.00
70546;BME280;58098;51.680;5.134;2024-02-26T07:30:12;100104.28;;;4.88;100.00
70546;BME280;58098;51.680;5.134;2024-02-26T07:32:38;100102.13;;;4.82;100.00
70546;BME280;58098;51.680;5.134;2024-02-26T07:35:04;100101.91;;;4.85;100.00
70546;BME280;58098;51.680;5.134;2024-02-26T07:37:30;100117.34;;;4.99;100.00
70546;BME280;58098;51.680;5.134;2024-02-26T07:39:55;100102.94;;;4.95;100.00
70546;BME280;58098;51.680;5.134;2024-02-26T07:42:20;100105.97;;;4.89;100.00
70546;BME280;58098;51.680;5.134;2024-02-26T07:44:46;100117.44;;;4.97;100.00
70546;BME280;58098;51.680;5.134;2024-02-26T07:47:11;100119.94;;;4.99;100.00
70546;BME280;58098;51.680;5.134;2024-02-26T07:49:36;100122.19;;;5.03;100.00
70546;BME280;58098;51.680;5.134;2024-02-26T07:52:02;100130.47;;;5.08;100.00
70546;BME280;58098;51.680;5.134;2024-02-26T07:54:27;100138.13;;;5.10;100.00
70546;BME280;58098;51.680;5.134;2024-02-26T07:56:52;100132.53;;;5.03;100.00
70546;BME280;58098;51.680;5.134;2024-02-26T07:59:18;100136.44;;;5.09;100.00
70546;BME280;58098;51.680;5.134;2024-02-26T08:01:43;100144.94;;;5.11;100.00
70546;BME280;58098;51.680;5.134;2024-02-26T08:04:08;100128.59;;;4.98;100.00
70546;BME280;58098;51.680;5.134;2024-02-26T08:06:34;100130.75;;;5.04;100.00
70546;BME280;58098;51.680;5.134;2024-02-26T08:08:59;100140.19;;;5.05;100.00
70546;BME280;58098;51.680;5.134;2024-02-26T08:11:25;100145.53;;;5.02;100.00
70546;BME280;58098;51.680;5.134;2024-02-26T08:13:50;100152.38;;;5.03;100.00
70546;BME280;58098;51.680;5.134;2024-02-26T08:16:15;100160.88;;;5.05;100.00
70546;BME280;58098;51.680;5.134;2024-02-26T08:18:40;100150.31;;;5.08;100.00
70546;BME280;58098;51.680;5.134;2024-02-26T08:21:06;100146.19;;;5.05;100.00
70546;BME280;58098;51.680;5.134;2024-02-26T08:23:31;100169.47;;;5.18;100.00
70546;BME280;58098;51.680;5.134;2024-02-26T08:25:57;100155.38;;;5.09;100.00
70546;BME280;58098;51.680;5.134;2024-02-26T08:28:22;100172.88;;;5.06;100.00
70546;BME280;58098;51.680;5.134;2024-02-26T08:30:48;100164.59;;;5.01;100.00
70546;BME280;58098;51.680;5.134;2024-02-26T08:33:13;100171.09;;;5.19;100.00
70546;BME280;58098;51.680;5.134;2024-02-26T08:35:39;100178.13;;;5.17;100.00
70546;BME280;58098;51.680;5.134;2024-02-26T08:38:04;100176.59;;;5.14;100.00
70546;BME280;58098;51.680;5.134;2024-02-26T08:40:29;100173.06;;;5.15;100.00
70546;BME280;58098;51.680;5.134;2024-02-26T08:42:55;100180.53;;;5.20;100.00
70546;BME280;58098;51.680;5.134;2024-02-26T08:45:21;100185.91;;;5.17;100.00
70546;BME280;58098;51.680;5.134;2024-02-26T08:47:46;100175.13;;;5.10;100.00
70546;BME280;58098;51.680;5.134;2024-02-26T08:50:11;100174.50;;;5.07;100.00
70546;BME280;58098;51.680;5.134;2024-02-26T08:52:38;100196.75;;;5.22;100.00
70546;BME280;58098;51.680;5.134;2024-02-26T08:55:03;100196.22;;;5.17;100.00
70546;BME280;58098;51.680;5.134;2024-02-26T08:57:31;100194.47;;;5.17;100.00
70546;BME280;58098;51.680;5.134;2024-02-26T08:59:59;100200.19;;;5.22;100.00
70546;BME280;58098;51.680;5.134;2024-02-26T09:02:25;100204.50;;;5.22;100.00
70546;BME280;58098;51.680;5.134;2024-02-26T09:04:50;100203.28;;;5.27;100.00
70546;BME280;58098;51.680;5.134;2024-02-26T09:07:18;100207.09;;;5.22;100.00
70546;BME280;58098;51.680;5.134;2024-02-26T09:09:44;100210.22;;;5.27;100.00
70546;BME280;58098;51.680;5.134;2024-02-26T09:12:09;100219.94;;;5.36;100.00
70546;BME280;58098;51.680;5.134;2024-02-26T09:14:34;100210.94;;;5.29;100.00
70546;BME280;58098;51.680;5.134;2024-02-26T09:17:00;100222.50;;;5.23;100.00
70546;BME280;58098;51.680;5.134;2024-02-26T09:19:26;100208.97;;;5.20;100.00
70546;BME280;58098;51.680;5.134;2024-02-26T09:21:52;100222.41;;;5.25;100.00
70546;BME280;58098;51.680;5.134;2024-02-26T09:24:22;100244.34;;;5.32;100.00
70546;BME280;58098;51.680;5.134;2024-02-26T09:26:47;100241.97;;;5.29;100.00
70546;BME280;58098;51.680;5.134;2024-02-26T09:29:13;100236.06;;;5.27;100.00
70546;BME280;58098;51.680;5.134;2024-02-26T09:31:38;100257.81;;;5.37;100.00
70546;BME280;58098;51.680;5.134;2024-02-26T09:34:06;100253.66;;;5.22;100.00
70546;BME280;58098;51.680;5.134;2024-02-26T09:36:31;100257.28;;;5.32;100.00
70546;BME280;58098;51.680;5.134;2024-02-26T09:38:56;100257.69;;;5.39;100.00
70546;BME280;58098;51.680;5.134;2024-02-26T09:41:22;100268.13;;;5.24;100.00
70546;BME280;58098;51.680;5.134;2024-02-26T09:43:48;100270.53;;;5.27;100.00
70546;BME280;58098;51.680;5.134;2024-02-26T09:46:17;100270.00;;;5.22;100.00
70546;BME280;58098;51.680;5.134;2024-02-26T09:48:46;100277.66;;;5.24;100.00
70546;BME280;58098;51.680;5.134;2024-02-26T09:51:12;100283.88;;;5.34;100.00
70546;BME280;58098;51.680;5.134;2024-02-26T09:53:39;100284.78;;;5.20;100.00
70546;BME280;58098;51.680;5.134;2024-02-26T09:56:08;100286.13;;;5.26;100.00
70546;BME280;58098;51.680;5.134;2024-02-26T09:58:34;100278.38;;;5.26;100.00
70546;BME280;58098;51.680;5.134;2024-02-26T10:01:02;100304.47;;;5.23;100.00
70546;BME280;58098;51.680;5.134;2024-02-26T10:03:32;100296.28;;;5.29;100.00
70546;BME280;58098;51.680;5.134;2024-02-26T10:05:59;100312.75;;;5.28;100.00
70546;BME280;58098;51.680;5.134;2024-02-26T10:08:28;100311.25;;;5.24;100.00
70546;BME280;58098;51.680;5.134;2024-02-26T10:10:54;100304.47;;;5.23;100.00
70546;BME280;58098;51.680;5.134;2024-02-26T10:13:19;100321.41;;;5.27;100.00
70546;BME280;58098;51.680;5.134;2024-02-26T10:15:45;100318.09;;;5.25;100.00
70546;BME280;58098;51.680;5.134;2024-02-26T10:18:11;100326.91;;;5.22;100.00
70546;BME280;58098;51.680;5.134;2024-02-26T10:20:36;100327.72;;;5.23;100.00
70546;BME280;58098;51.680;5.134;2024-02-26T10:23:03;100336.13;;;5.39;100.00
70546;BME280;58098;51.680;5.134;2024-02-26T10:25:28;100345.63;;;5.26;100.00
70546;BME280;58098;51.680;5.134;2024-02-26T10:27:59;100347.28;;;5.27;100.00
70546;BME280;58098;51.680;5.134;2024-02-26T10:30:24;100337.44;;;5.19;100.00
70546;BME280;58098;51.680;5.134;2024-02-26T10:32:51;100361.34;;;5.35;100.00
70546;BME280;58098;51.680;5.134;2024-02-26T10:35:18;100337.66;;;5.29;100.00
70546;BME280;58098;51.680;5.134;2024-02-26T10:37:46;100360.22;;;5.27;100.00
70546;BME280;58098;51.680;5.134;2024-02-26T10:40:13;100366.13;;;5.29;100.00
70546;BME280;58098;51.680;5.134;2024-02-26T10:42:39;100362.19;;;5.36;100.00
70546;BME280;58098;51.680;5.134;2024-02-26T10:45:06;100374.22;;;5.37;100.00
70546;BME280;58098;51.680;5.134;2024-02-26T10:47:32;100363.00;;;5.24;100.00
70546;BME280;58098;51.680;5.134;2024-02-26T10:49:59;100371.28;;;5.29;100.00
70546;BME280;58098;51.680;5.134;2024-02-26T10:52:25;100378.50;;;5.24;100.00
70546;BME280;58098;51.680;5.134;2024-02-26T10:54:53;100389.94;;;5.34;100.00
70546;BME280;58098;51.680;5.134;2024-02-26T10:57:19;100382.69;;;5.39;100.00
70546;BME280;58098;51.680;5.134;2024-02-26T10:59:48;100384.44;;;5.39;100.00
70546;BME280;58098;51.680;5.134;2024-02-26T11:02:14;100401.00;;;5.36;100.00
70546;BME280;58098;51.680;5.134;2024-02-26T11:04:40;100407.91;;;5.35;100.00
70546;BME280;58098;51.680;5.134;2024-02-26T11:07:08;100398.53;;;5.34;100.00
70546;BME280;58098;51.680;5.134;2024-02-26T11:09:34;100416.13;;;5.42;100.00
70546;BME280;58098;51.680;5.134;2024-02-26T11:12:01;100398.22;;;5.39;100.00
70546;BME280;58098;51.680;5.134;2024-02-26T11:14:29;100413.94;;;5.36;100.00
70546;BME280;58098;51.680;5.134;2024-02-26T11:16:55;100414.47;;;5.41;100.00
70546;BME280;58098;51.680;5.134;2024-02-26T11:19:21;100407.69;;;5.26;100.00
70546;BME280;58098;51.680;5.134;2024-02-26T11:21:47;100413.44;;;5.44;100.00
70546;BME280;58098;51.680;5.134;2024-02-26T11:24:14;100418.19;;;5.37;100.00
70546;BME280;58098;51.680;5.134;2024-02-26T11:26:49;100417.75;;;5.57;100.00
70546;BME280;58098;51.680;5.134;2024-02-26T11:29:20;100398.72;;;5.31;100.00
70546;BME280;58098;51.680;5.134;2024-02-26T11:31:46;100440.28;;;5.55;100.00
70546;BME280;58098;51.680;5.134;2024-02-26T11:34:12;100426.06;;;5.48;100.00
70546;BME280;58098;51.680;5.134;2024-02-26T11:36:38;100434.97;;;5.44;100.00
70546;BME280;58098;51.680;5.134;2024-02-26T11:39:04;100435.69;;;5.46;100.00
70546;BME280;58098;51.680;5.134;2024-02-26T11:41:30;100432.81;;;5.51;100.00
70546;BME280;58098;51.680;5.134;2024-02-26T11:44:01;100442.84;;;5.55;100.00
70546;BME280;58098;51.680;5.134;2024-02-26T11:46:28;100436.97;;;5.53;100.00
70546;BME280;58098;51.680;5.134;2024-02-26T11:49:03;100438.44;;;5.57;100.00
70546;BME280;58098;51.680;5.134;2024-02-26T11:51:33;100430.34;;;5.49;100.00
70546;BME280;58098;51.680;5.134;2024-02-26T11:53:58;100442.63;;;5.46;100.00
70546;BME280;58098;51.680;5.134;2024-02-26T11:56:25;100428.47;;;5.51;100.00
70546;BME280;58098;51.680;5.134;2024-02-26T11:59:37;100446.22;;;5.70;100.00
70546;BME280;58098;51.680;5.134;2024-02-26T12:02:02;100434.97;;;5.44;100.00
70546;BME280;58098;51.680;5.134;2024-02-26T12:04:30;100440.88;;;5.46;100.00
70546;BME280;58098;51.680;5.134;2024-02-26T12:06:57;100450.25;;;5.61;100.00
70546;BME280;58098;51.680;5.134;2024-02-26T12:09:37;100457.06;;;5.62;100.00
70546;BME280;58098;51.680;5.134;2024-02-26T12:12:08;100456.69;;;5.68;100.00
70546;BME280;58098;51.680;5.134;2024-02-26T12:14:56;100444.41;;;5.58;100.00
70546;BME280;58098;51.680;5.134;2024-02-26T12:17:22;100458.19;;;5.58;100.00
70546;BME280;58098;51.680;5.134;2024-02-26T12:19:47;100477.25;;;5.57;100.00
70546;BME280;58098;51.680;5.134;2024-02-26T12:22:14;100477.97;;;5.59;100.00
70546;BME280;58098;51.680;5.134;2024-02-26T12:24:43;100480.81;;;5.69;100.00
70546;BME280;58098;51.680;5.134;2024-02-26T12:27:08;100488.13;;;5.62;100.00
70546;BME280;58098;51.680;5.134;2024-02-26T12:29:33;100505.19;;;5.65;100.00
70546;BME280;58098;51.680;5.134;2024-02-26T12:31:59;100483.16;;;5.59;100.00
70546;BME280;58098;51.680;5.134;2024-02-26T12:34:25;100498.50;;;5.75;100.00
70546;BME280;58098;51.680;5.134;2024-02-26T12:36:51;100505.66;;;5.71;100.00
70546;BME280;58098;51.680;5.134;2024-02-26T12:39:18;100485.63;;;5.61;100.00
70546;BME280;58098;51.680;5.134;2024-02-26T12:41:46;100497.19;;;5.55;100.00
70546;BME280;58098;51.680;5.134;2024-02-26T12:44:15;100505.75;;;5.70;100.00
70546;BME280;58098;51.680;5.134;2024-02-26T12:46:41;100513.81;;;5.65;100.00
70546;BME280;58098;51.680;5.134;2024-02-26T12:49:06;100508.63;;;5.65;100.00